createdAt,value
2022-08-19T00:00:59.979Z,80.79
2022-08-19T00:03:03.029Z,80.33
2022-08-19T00:05:07.044Z,80.76
2022-08-19T00:07:10.290Z,80.46
2022-08-19T00:09:17.395Z,80.50
2022-08-19T00:11:25.258Z,80.96
2022-08-19T00:13:30.138Z,80.65
2022-08-19T00:15:33.307Z,80.61
2022-08-19T00:17:36.338Z,80.41
2022-08-19T00:19:45.255Z,80.34
2022-08-19T00:21:48.634Z,80.22
2022-08-19T00:23:51.708Z,80.07
2022-08-19T00:25:56.274Z,79.83
2022-08-19T00:27:59.886Z,80.18
2022-08-19T00:30:04.358Z,80.19
2022-08-19T00:32:07.633Z,79.70
2022-08-19T00:34:14.141Z,79.96
2022-08-19T00:36:17.164Z,80.70
2022-08-19T00:38:29.610Z,81.45
2022-08-19T00:40:40.579Z,81.68
2022-08-19T00:42:45.983Z,82.77
2022-08-19T00:44:50.108Z,82.54
2022-08-19T00:46:58.382Z,82.08
2022-08-19T00:49:03.222Z,82.77
2022-08-19T00:51:07.169Z,82.52
2022-08-19T00:53:10.338Z,81.76
2022-08-19T00:55:19.604Z,82.96
2022-08-19T00:57:29.818Z,83.48
2022-08-19T00:59:58.830Z,83.11
2022-08-19T01:01:58.744Z,83.66
2022-08-19T01:04:01.822Z,83.90
2022-08-19T01:06:05.068Z,83.73
2022-08-19T01:08:08.412Z,83.51
2022-08-19T01:10:20.004Z,83.07
2022-08-19T01:12:23.253Z,83.14
2022-08-19T01:14:26.828Z,82.24
2022-08-19T01:16:32.282Z,82.38
2022-08-19T01:18:38.838Z,82.38
2022-08-19T01:20:42.638Z,81.36
2022-08-19T01:22:49.394Z,81.24
2022-08-19T01:24:52.856Z,81.20
2022-08-19T01:26:58.943Z,81.24
2022-08-19T01:29:02.642Z,80.55
2022-08-19T01:31:09.353Z,80.76
2022-08-19T01:33:12.629Z,81.76
2022-08-19T01:35:18.717Z,82.52
2022-08-19T01:37:24.986Z,83.13
2022-08-19T01:39:31.720Z,83.79
2022-08-19T01:41:34.965Z,83.93
2022-08-19T01:43:38.513Z,84.11
2022-08-19T01:46:01.568Z,83.47
2022-08-19T01:48:05.590Z,83.79
2022-08-19T01:50:11.738Z,83.97
2022-08-19T01:52:14.756Z,83.42
2022-08-19T01:54:23.074Z,82.50
2022-08-19T01:56:32.238Z,82.98
2022-08-19T01:58:40.369Z,83.49
2022-08-19T02:00:43.474Z,82.11
2022-08-19T02:02:46.789Z,82.69
2022-08-19T02:04:49.900Z,83.39
2022-08-19T02:06:53.046Z,83.80
2022-08-19T02:08:57.608Z,84.57
2022-08-19T02:11:01.190Z,84.53
2022-08-19T02:13:05.628Z,84.33
2022-08-19T02:15:09.294Z,84.29
2022-08-19T02:17:12.356Z,83.79
2022-08-19T02:19:16.068Z,83.82
2022-08-19T02:21:20.717Z,84.25
2022-08-19T02:25:26.573Z,84.74
2022-08-19T02:27:29.924Z,85.32
2022-08-19T02:29:35.296Z,85.31
2022-08-19T02:31:38.377Z,85.38
2022-08-19T02:33:41.403Z,85.21
2022-08-19T02:35:44.824Z,86.16
2022-08-19T02:38:05.542Z,85.73
2022-08-19T02:40:12.417Z,85.26
2022-08-19T02:42:15.904Z,85.18
2022-08-19T02:44:29.283Z,84.87
2022-08-19T02:46:36.703Z,84.87
2022-08-19T02:48:39.860Z,84.66
2022-08-19T02:50:53.183Z,85.14
2022-08-19T02:52:56.786Z,84.88
2022-08-19T02:55:00.055Z,84.97
2022-08-19T02:57:03.035Z,84.90
2022-08-19T02:59:12.483Z,85.15
2022-08-19T03:01:22.639Z,85.82
2022-08-19T03:03:27.660Z,86.53
2022-08-19T03:05:55.751Z,86.92
2022-08-19T03:07:54.047Z,86.86
2022-08-19T03:09:57.131Z,87.22
2022-08-19T03:12:00.436Z,87.09
2022-08-19T03:14:04.838Z,87.50
2022-08-19T03:16:08.033Z,87.52
2022-08-19T03:18:11.106Z,87.31
2022-08-19T03:20:17.593Z,87.04
2022-08-19T03:22:20.523Z,87.24
2022-08-19T03:24:24.143Z,86.39
2022-08-19T03:26:27.373Z,86.53
2022-08-19T03:28:30.582Z,86.31
2022-08-19T03:30:33.660Z,86.64
2022-08-19T03:32:36.684Z,86.49
2022-08-19T03:34:48.399Z,86.20
2022-08-19T03:36:52.814Z,86.69
2022-08-19T03:38:59.720Z,87.18
2022-08-19T03:41:08.824Z,86.93
2022-08-19T03:43:11.813Z,87.31
2022-08-19T03:45:14.939Z,86.78
2022-08-19T03:47:18.187Z,86.00
2022-08-19T03:49:27.076Z,85.73
2022-08-19T03:51:33.601Z,85.47
2022-08-19T03:53:38.027Z,85.18
2022-08-19T03:55:42.672Z,84.98
2022-08-19T03:57:46.734Z,84.54
2022-08-19T03:59:49.890Z,84.44
2022-08-19T04:01:53.507Z,84.77
2022-08-19T04:03:57.855Z,84.38
2022-08-19T04:06:00.885Z,84.41
2022-08-19T04:08:04.339Z,84.31
2022-08-19T04:10:10.598Z,84.20
2022-08-19T04:12:13.894Z,84.29
2022-08-19T04:14:23.956Z,84.46
2022-08-19T04:16:35.188Z,84.64
2022-08-19T04:18:40.103Z,84.59
2022-08-19T04:20:45.345Z,84.16
2022-08-19T04:22:48.477Z,84.20
2022-08-19T04:24:51.511Z,84.33
2022-08-19T04:26:56.097Z,84.20
2022-08-19T04:28:59.121Z,84.96
2022-08-19T04:31:02.213Z,84.49
2022-08-19T04:33:05.519Z,85.02
2022-08-19T04:35:17.444Z,85.03
2022-08-19T04:37:22.806Z,84.90
2022-08-19T04:39:48.170Z,85.08
2022-08-19T04:42:10.953Z,85.67
2022-08-19T04:44:19.039Z,86.11
2022-08-19T04:46:39.365Z,85.71
2022-08-19T04:48:44.586Z,85.79
2022-08-19T04:50:58.485Z,86.22
2022-08-19T04:53:01.720Z,85.94
2022-08-19T04:55:07.494Z,85.66
2022-08-19T04:57:11.539Z,85.07
2022-08-19T04:59:16.925Z,84.78
2022-08-19T05:01:22.060Z,85.34
2022-08-19T05:03:28.775Z,84.87
2022-08-19T05:05:44.677Z,85.20
2022-08-19T05:07:48.558Z,85.02
2022-08-19T05:09:57.841Z,84.67
2022-08-19T05:12:02.626Z,85.36
2022-08-19T05:14:05.968Z,85.80
2022-08-19T05:16:12.025Z,85.63
2022-08-19T05:18:32.511Z,85.71
2022-08-19T05:20:53.089Z,85.66
2022-08-19T05:22:56.243Z,86.54
2022-08-19T05:25:12.151Z,86.86
2022-08-19T05:27:15.979Z,87.13
2022-08-19T05:29:21.125Z,87.07
2022-08-19T05:31:26.816Z,87.64
2022-08-19T05:33:29.839Z,87.62
2022-08-19T05:35:34.764Z,87.74
2022-08-19T05:37:37.951Z,87.47
2022-08-19T05:39:41.350Z,87.44
2022-08-19T05:41:44.829Z,87.43
2022-08-19T05:43:49.282Z,87.07
2022-08-19T05:45:52.642Z,87.66
2022-08-19T05:47:57.117Z,87.35
2022-08-19T05:50:00.196Z,86.95
2022-08-19T05:52:05.378Z,87.19
2022-08-19T05:54:09.609Z,87.14
2022-08-19T05:56:15.664Z,87.08
2022-08-19T05:58:18.744Z,86.60
2022-08-19T06:00:31.567Z,86.71
2022-08-19T06:02:34.610Z,86.75
2022-08-19T06:04:40.365Z,85.87
2022-08-19T06:06:43.467Z,86.08
2022-08-19T06:08:51.650Z,85.82
2022-08-19T06:10:54.700Z,85.21
2022-08-19T06:12:57.673Z,85.46
2022-08-19T06:15:02.112Z,85.23
2022-08-19T06:17:07.221Z,85.60
2022-08-19T06:19:13.634Z,85.36
2022-08-19T06:21:18.000Z,85.28
2022-08-19T06:23:21.220Z,85.19
2022-08-19T06:25:30.470Z,85.20
2022-08-19T06:27:34.452Z,85.67
2022-08-19T06:29:37.690Z,85.76
2022-08-19T06:31:43.503Z,85.26
2022-08-19T06:33:47.521Z,85.61
2022-08-19T06:35:53.199Z,84.59
2022-08-19T06:37:57.965Z,84.68
2022-08-19T06:40:01.312Z,84.62
2022-08-19T06:42:07.952Z,84.84
2022-08-19T06:44:14.682Z,84.98
2022-08-19T06:46:19.733Z,84.32
2022-08-19T06:48:22.870Z,84.45
2022-08-19T06:50:29.358Z,84.29
2022-08-19T06:52:34.118Z,84.10
2022-08-19T06:54:55.814Z,83.46
2022-08-19T06:57:02.875Z,82.77
2022-08-19T06:59:07.730Z,83.09
2022-08-19T07:01:11.250Z,82.71
2022-08-19T07:03:14.575Z,82.78
2022-08-19T07:05:18.205Z,82.68
2022-08-19T07:07:23.359Z,83.34
2022-08-19T07:09:26.395Z,82.52
2022-08-19T07:11:31.868Z,82.61
2022-08-19T07:13:38.018Z,83.50
2022-08-19T07:15:41.364Z,82.54
2022-08-19T07:17:44.437Z,83.19
2022-08-19T07:19:48.030Z,83.88
2022-08-19T07:21:53.695Z,84.57
2022-08-19T07:23:57.392Z,84.46
2022-08-19T07:26:00.516Z,84.53
2022-08-19T07:28:05.352Z,84.85
2022-08-19T07:30:11.635Z,85.90
2022-08-19T07:32:15.377Z,84.61
2022-08-19T07:34:19.507Z,84.69
2022-08-19T07:36:25.320Z,85.74
2022-08-19T07:38:29.325Z,85.58
2022-08-19T07:40:32.927Z,85.73
2022-08-19T07:42:36.487Z,85.31
2022-08-19T07:46:53.220Z,85.40
2022-08-19T07:48:56.434Z,85.67
2022-08-19T07:51:02.743Z,85.40
2022-08-19T07:53:05.731Z,86.06
2022-08-19T07:55:40.228Z,85.74
2022-08-19T07:57:33.105Z,86.15
2022-08-19T07:59:36.166Z,86.43
2022-08-19T08:01:41.855Z,85.63
2022-08-19T08:04:07.991Z,86.50
2022-08-19T08:06:29.460Z,85.29
2022-08-19T08:08:51.073Z,86.13
2022-08-19T08:10:57.124Z,86.21
2022-08-19T08:13:09.209Z,85.75
2022-08-19T08:15:17.348Z,85.87
2022-08-19T08:17:31.188Z,85.62
2022-08-19T08:19:51.864Z,85.90
2022-08-19T08:21:59.063Z,85.91
2022-08-19T08:26:09.241Z,86.02
2022-08-19T08:28:17.606Z,86.09
2022-08-19T08:30:23.583Z,86.15
2022-08-19T08:32:28.592Z,86.01
2022-08-19T08:34:31.839Z,86.44
2022-08-19T08:36:35.303Z,86.02
2022-08-19T08:38:40.267Z,86.07
2022-08-19T08:40:49.505Z,85.38
2022-08-19T08:45:15.875Z,85.38
2022-08-19T08:47:21.221Z,85.44
2022-08-19T08:49:36.212Z,84.90
2022-08-19T08:53:51.694Z,85.42
2022-08-19T08:55:59.280Z,85.39
2022-08-19T08:58:05.549Z,85.39
2022-08-19T09:00:15.561Z,85.35
2022-08-19T09:02:19.209Z,85.13
2022-08-19T09:04:23.822Z,84.63
2022-08-19T09:06:33.589Z,85.97
2022-08-19T09:08:44.241Z,84.98
2022-08-19T09:10:54.987Z,85.61
2022-08-19T09:13:09.152Z,85.16
2022-08-19T09:15:15.004Z,86.43
2022-08-19T09:17:20.325Z,86.29
2022-08-19T09:19:23.711Z,85.90
2022-08-19T09:21:33.223Z,85.52
2022-08-19T09:23:36.590Z,85.13
2022-08-19T09:25:41.108Z,84.99
2022-08-19T09:27:46.421Z,84.49
2022-08-19T09:29:49.931Z,85.05
2022-08-19T09:31:53.361Z,84.94
2022-08-19T09:33:58.176Z,85.56
2022-08-19T09:36:08.447Z,85.28
2022-08-19T09:38:13.165Z,85.33
2022-08-19T09:40:16.348Z,84.87
2022-08-19T09:42:29.882Z,85.36
2022-08-19T09:44:34.701Z,84.82
2022-08-19T09:46:37.803Z,85.04
2022-08-19T09:48:41.764Z,85.52
2022-08-19T09:50:51.494Z,86.38
2022-08-19T09:52:57.554Z,86.12
2022-08-19T09:55:07.465Z,85.77
2022-08-19T09:57:11.426Z,85.86
2022-08-19T09:59:14.500Z,86.88
2022-08-19T10:01:20.353Z,88.20
2022-08-19T10:03:25.431Z,89.27
2022-08-19T10:05:55.164Z,89.74
2022-08-19T10:07:58.646Z,90.31
2022-08-19T10:10:03.091Z,90.28
2022-08-19T10:12:06.778Z,91.33
2022-08-19T10:14:14.660Z,91.99
2022-08-19T10:16:20.920Z,92.00
2022-08-19T10:18:25.415Z,92.18
2022-08-19T10:20:31.064Z,91.66
2022-08-19T10:22:36.649Z,91.16
2022-08-19T10:24:39.738Z,91.76
2022-08-19T10:26:49.046Z,92.46
2022-08-19T10:29:00.581Z,92.27
2022-08-19T10:31:07.330Z,91.91
2022-08-19T10:33:11.315Z,93.77
2022-08-19T10:35:16.214Z,93.58
2022-08-19T10:37:31.220Z,94.76
2022-08-19T10:39:43.297Z,94.72
2022-08-19T10:41:48.243Z,92.83
2022-08-19T10:43:55.435Z,92.42
2022-08-19T10:46:00.259Z,92.93
2022-08-19T10:48:03.407Z,94.04
2022-08-19T10:50:28.687Z,94.27
2022-08-19T10:52:38.783Z,95.49
2022-08-19T10:54:59.865Z,95.03
2022-08-19T10:57:09.898Z,95.63
2022-08-19T10:59:15.056Z,96.36
2022-08-19T11:01:18.248Z,96.30
2022-08-19T11:03:21.555Z,97.02
2022-08-19T11:05:24.731Z,96.85
2022-08-19T11:07:27.714Z,96.79
2022-08-19T11:09:34.404Z,95.96
2022-08-19T11:11:41.621Z,96.54
2022-08-19T11:13:47.433Z,97.30
2022-08-19T11:15:58.512Z,97.24
2022-08-19T11:18:01.608Z,96.25
2022-08-19T11:20:06.693Z,95.69
2022-08-19T11:22:11.349Z,96.24
2022-08-19T11:24:22.306Z,96.73
2022-08-19T11:26:25.768Z,97.27
2022-08-19T11:28:29.441Z,95.97
2022-08-19T11:30:34.222Z,95.59
2022-08-19T11:32:37.313Z,95.67
2022-08-19T11:34:40.625Z,96.01
2022-08-19T11:36:45.816Z,95.85
2022-08-19T11:38:49.866Z,96.20
2022-08-19T11:40:59.747Z,95.71
2022-08-19T11:43:02.773Z,96.27
2022-08-19T11:45:06.229Z,95.62
2022-08-19T11:47:10.620Z,95.62
2022-08-19T11:49:14.320Z,95.78
2022-08-19T11:51:20.756Z,94.48
2022-08-19T11:53:24.486Z,95.36
2022-08-19T11:55:27.566Z,94.71
2022-08-19T11:57:30.829Z,96.22
2022-08-19T11:59:33.979Z,95.96
2022-08-19T12:01:37.073Z,95.39
2022-08-19T12:03:41.729Z,95.25
2022-08-19T12:05:44.825Z,94.38
2022-08-19T12:07:48.035Z,94.38
2022-08-19T12:09:51.233Z,94.18
2022-08-19T12:11:55.261Z,94.05
2022-08-19T12:13:58.366Z,93.78
2022-08-19T12:16:01.505Z,94.30
2022-08-19T12:18:04.889Z,93.21
2022-08-19T12:20:11.801Z,93.78
2022-08-19T12:22:15.085Z,92.73
2022-08-19T12:24:21.462Z,92.39
2022-08-19T12:26:25.395Z,92.69
2022-08-19T12:28:28.610Z,92.28
2022-08-19T12:30:31.750Z,93.17
2022-08-19T12:32:35.287Z,92.97
2022-08-19T12:34:38.907Z,92.39
2022-08-19T12:36:43.380Z,92.18
2022-08-19T12:38:47.706Z,91.80
2022-08-19T12:40:55.100Z,91.04
2022-08-19T12:43:00.587Z,90.62
2022-08-19T12:45:03.628Z,90.94
2022-08-19T12:47:10.334Z,91.88
2022-08-19T12:49:27.372Z,91.26
2022-08-19T12:51:36.868Z,91.07
2022-08-19T12:53:41.879Z,92.26
2022-08-19T12:55:45.068Z,91.46
2022-08-19T12:57:49.441Z,92.67
2022-08-19T12:59:55.472Z,92.52
2022-08-19T13:01:58.734Z,92.63
2022-08-19T13:04:01.822Z,93.12
2022-08-19T13:06:05.121Z,92.52
2022-08-19T13:08:08.235Z,92.66
2022-08-19T13:10:16.336Z,93.02
2022-08-19T13:12:19.468Z,94.01
2022-08-19T13:14:28.025Z,93.65
2022-08-19T13:16:31.127Z,93.18
2022-08-19T13:18:34.271Z,92.58
2022-08-19T13:20:38.825Z,93.37
2022-08-19T13:22:42.145Z,92.44
2022-08-19T13:24:47.349Z,93.94
2022-08-19T13:26:51.969Z,93.14
2022-08-19T13:29:12.294Z,92.49
2022-08-19T13:31:34.944Z,92.33
2022-08-19T13:33:38.005Z,93.38
2022-08-19T13:35:42.685Z,92.72
2022-08-19T13:37:46.370Z,92.12
2022-08-19T13:39:49.743Z,91.67
2022-08-19T13:41:54.264Z,92.11
2022-08-19T13:43:57.369Z,92.12
2022-08-19T13:46:01.051Z,91.91
2022-08-19T13:48:08.045Z,89.68
2022-08-19T13:50:12.664Z,90.26
2022-08-19T13:52:15.941Z,90.13
2022-08-19T13:54:18.988Z,89.19
2022-08-19T13:56:26.095Z,89.12
2022-08-19T13:58:32.529Z,89.07
2022-08-19T14:00:39.767Z,90.11
2022-08-19T14:02:44.147Z,90.28
2022-08-19T14:04:47.249Z,89.06
2022-08-19T14:06:50.375Z,89.21
2022-08-19T14:08:53.898Z,88.79
2022-08-19T14:10:57.226Z,88.84
2022-08-19T14:13:02.392Z,89.53
2022-08-19T14:15:08.596Z,89.05
2022-08-19T14:17:11.634Z,87.94
2022-08-19T14:19:16.274Z,87.65
2022-08-19T14:21:22.055Z,88.57
2022-08-19T14:23:25.239Z,89.17
2022-08-19T14:25:30.611Z,88.37
2022-08-19T14:27:35.061Z,89.24
2022-08-19T14:29:38.651Z,89.27
2022-08-19T14:31:44.183Z,89.36
2022-08-19T14:33:48.290Z,88.05
2022-08-19T14:35:51.366Z,89.03
2022-08-19T14:38:03.752Z,89.09
2022-08-19T14:40:08.270Z,87.87
2022-08-19T14:42:11.741Z,88.68
2022-08-19T14:44:14.878Z,87.71
2022-08-19T14:46:20.774Z,89.01
2022-08-19T14:48:28.958Z,87.64
2022-08-19T14:50:32.663Z,88.69
2022-08-19T14:52:35.790Z,88.70
2022-08-19T14:54:38.765Z,89.35
2022-08-19T14:56:42.459Z,89.99
2022-08-19T14:58:46.041Z,89.17
2022-08-19T15:00:49.243Z,88.27
2022-08-19T15:02:52.929Z,87.97
2022-08-19T15:04:59.402Z,88.03
2022-08-19T15:07:05.355Z,88.28
2022-08-19T15:09:08.439Z,88.59
2022-08-19T15:11:12.507Z,88.43
2022-08-19T15:13:15.707Z,87.53
2022-08-19T15:15:19.215Z,88.21
2022-08-19T15:17:24.761Z,88.00
2022-08-19T15:19:45.591Z,88.85
2022-08-19T15:21:50.022Z,89.33
2022-08-19T15:23:53.999Z,89.97
2022-08-19T15:25:57.085Z,89.75
2022-08-19T15:28:01.771Z,91.48
2022-08-19T15:30:05.621Z,92.65
2022-08-19T15:32:09.740Z,93.55
2022-08-19T15:34:12.912Z,93.03
2022-08-19T15:36:16.723Z,92.33
2022-08-19T15:38:24.397Z,92.23
2022-08-19T15:40:28.427Z,92.83
2022-08-19T15:42:31.518Z,93.65
2022-08-19T15:44:34.956Z,93.60
2022-08-19T15:46:39.818Z,93.33
2022-08-19T15:48:42.935Z,94.10
2022-08-19T15:50:46.019Z,94.89
2022-08-19T15:52:52.109Z,94.43
2022-08-19T15:54:56.586Z,95.23
2022-08-19T15:57:17.265Z,95.25
2022-08-19T15:59:46.819Z,95.57
2022-08-19T16:02:10.460Z,95.80
2022-08-19T16:04:34.830Z,94.87
2022-08-19T16:06:39.983Z,94.99
2022-08-19T16:08:48.869Z,94.41
2022-08-19T16:10:53.760Z,95.01
2022-08-19T16:12:57.767Z,94.62
2022-08-19T16:15:01.392Z,94.85
2022-08-19T16:17:04.915Z,95.40
2022-08-19T16:19:11.905Z,95.23
2022-08-19T16:21:17.300Z,96.09
2022-08-19T16:23:20.353Z,95.60
2022-08-19T16:25:27.505Z,95.94
2022-08-19T16:27:32.433Z,96.19
2022-08-19T16:29:39.092Z,96.29
2022-08-19T16:31:46.044Z,97.15
2022-08-19T16:33:49.217Z,97.24
2022-08-19T16:36:00.461Z,97.15
2022-08-19T16:38:11.425Z,97.10
2022-08-19T16:40:14.640Z,97.07
2022-08-19T16:42:17.898Z,96.99
2022-08-19T16:44:22.778Z,96.04
2022-08-19T16:46:27.460Z,96.15
2022-08-19T16:48:32.999Z,96.96
2022-08-19T16:50:51.223Z,96.29
2022-08-19T16:52:54.251Z,96.84
2022-08-19T16:54:57.401Z,96.48
2022-08-19T16:57:00.478Z,96.08
2022-08-19T16:59:04.873Z,95.68
2022-08-19T17:01:11.351Z,95.88
2022-08-19T17:03:15.302Z,95.67
2022-08-19T17:05:18.839Z,95.65
2022-08-19T17:07:21.890Z,94.86
2022-08-19T17:09:26.239Z,94.48
2022-08-19T17:11:31.604Z,94.75
2022-08-19T17:13:35.022Z,94.56
2022-08-19T17:15:38.273Z,94.03
2022-08-19T17:17:42.651Z,93.95
2022-08-19T17:19:47.391Z,93.92
2022-08-19T17:21:50.441Z,93.83
2022-08-19T17:23:53.447Z,94.17
2022-08-19T17:25:56.915Z,94.45
2022-08-19T17:28:08.054Z,94.04
2022-08-19T17:30:11.681Z,93.43
2022-08-19T17:32:15.380Z,93.79
2022-08-19T17:34:19.795Z,94.52
2022-08-19T17:36:24.320Z,94.93
2022-08-19T17:38:27.973Z,94.55
2022-08-19T17:40:31.295Z,94.45
2022-08-19T17:42:35.938Z,94.98
2022-08-19T17:44:40.782Z,95.82
2022-08-19T17:46:45.105Z,96.00
2022-08-19T17:48:52.118Z,95.47
2022-08-19T17:50:57.308Z,94.91
2022-08-19T17:53:02.593Z,95.07
2022-08-19T17:55:06.562Z,95.00
2022-08-19T17:57:09.601Z,94.82
2022-08-19T17:59:14.508Z,94.86
2022-08-19T18:01:18.045Z,94.93
2022-08-19T18:03:30.312Z,94.70
2022-08-19T18:05:36.869Z,95.00
2022-08-19T18:07:42.388Z,94.77
2022-08-19T18:09:51.524Z,94.17
2022-08-19T18:11:56.986Z,94.72
2022-08-19T18:14:00.174Z,95.02
2022-08-19T18:16:03.397Z,95.44
2022-08-19T18:18:15.208Z,95.25
2022-08-19T18:20:19.711Z,95.52
2022-08-19T18:22:26.541Z,96.03
2022-08-19T18:24:31.056Z,96.79
2022-08-19T18:26:34.881Z,96.86
2022-08-19T18:28:49.440Z,97.12
2022-08-19T18:30:53.357Z,97.15
2022-08-19T18:32:56.392Z,96.72
2022-08-19T18:35:00.969Z,97.55
2022-08-19T18:37:04.078Z,96.86
2022-08-19T18:39:25.325Z,97.30
2022-08-19T18:41:51.513Z,97.22
2022-08-19T18:44:12.527Z,97.41
2022-08-19T18:46:33.132Z,96.61
2022-08-19T18:48:57.763Z,96.52
2022-08-19T18:51:02.455Z,96.49
2022-08-19T18:53:05.541Z,96.52
2022-08-19T18:55:11.960Z,96.55
2022-08-19T18:57:16.667Z,95.87
2022-08-19T18:59:19.999Z,96.03
2022-08-19T19:01:27.697Z,95.82
2022-08-19T19:03:30.720Z,96.11
2022-08-19T19:05:33.930Z,96.31
2022-08-19T19:07:37.086Z,96.64
2022-08-19T19:09:41.378Z,96.34
2022-08-19T19:11:46.851Z,97.55
2022-08-19T19:13:51.357Z,96.47
2022-08-19T19:15:54.418Z,96.77
2022-08-19T19:17:59.894Z,97.22
2022-08-19T19:20:04.553Z,97.48
2022-08-19T19:22:07.684Z,97.23
2022-08-19T19:24:14.107Z,97.26
2022-08-19T19:26:17.720Z,97.34
2022-08-19T19:28:25.418Z,96.97
2022-08-19T19:30:31.657Z,97.51
2022-08-19T19:32:39.225Z,97.22
2022-08-19T19:34:42.532Z,97.71
2022-08-19T19:36:45.778Z,97.88
2022-08-19T19:38:49.181Z,98.23
2022-08-19T19:40:52.245Z,97.93
2022-08-19T19:42:55.644Z,98.14
2022-08-19T19:44:58.669Z,97.53
2022-08-19T19:47:03.148Z,98.17
2022-08-19T19:49:07.131Z,97.62
2022-08-19T19:51:10.201Z,97.09
2022-08-19T19:53:15.096Z,97.52
2022-08-19T19:55:19.066Z,97.29
2022-08-19T19:57:23.833Z,97.73
2022-08-19T19:59:27.091Z,97.43
2022-08-19T20:01:30.715Z,97.12
2022-08-19T20:03:35.429Z,97.95
2022-08-19T20:05:38.586Z,96.91
2022-08-19T20:07:59.362Z,97.40
2022-08-19T20:10:02.712Z,97.43
2022-08-19T20:12:06.215Z,97.62
2022-08-19T20:14:12.664Z,98.27
2022-08-19T20:16:15.820Z,97.65
2022-08-19T20:18:18.932Z,97.40
2022-08-19T20:20:23.686Z,97.65
2022-08-19T20:22:26.947Z,98.65
2022-08-19T20:24:32.609Z,98.30
2022-08-19T20:26:35.765Z,98.81
2022-08-19T20:28:47.420Z,98.23
2022-08-19T20:30:57.084Z,98.21
2022-08-19T20:33:04.655Z,98.17
2022-08-19T20:35:09.045Z,98.66
2022-08-19T20:37:13.543Z,98.65
2022-08-19T20:39:16.622Z,98.32
2022-08-19T20:41:20.277Z,98.52
2022-08-19T20:43:23.294Z,98.65
2022-08-19T20:45:32.178Z,98.74
2022-08-19T20:47:36.649Z,99.06
2022-08-19T20:49:39.775Z,100.00
2022-08-19T20:51:44.456Z,99.89
2022-08-19T20:53:49.217Z,99.96
2022-08-19T20:55:52.354Z,99.79
2022-08-19T20:57:56.502Z,99.97
2022-08-19T20:59:59.913Z,99.74
2022-08-19T21:02:02.976Z,100.00
2022-08-19T21:04:06.131Z,100.00
2022-08-19T21:06:09.519Z,100.00
2022-08-19T21:08:18.216Z,100.00
2022-08-19T21:10:22.715Z,99.72
2022-08-19T21:12:27.006Z,100.00
2022-08-19T21:14:30.941Z,100.00
2022-08-19T21:16:34.112Z,100.00
2022-08-19T21:18:37.242Z,100.00
2022-08-19T21:20:41.304Z,100.00
2022-08-19T21:22:44.457Z,100.00
2022-08-19T21:24:47.558Z,100.00
2022-08-19T21:26:52.044Z,100.00
2022-08-19T21:28:55.196Z,100.00
2022-08-19T21:31:00.359Z,100.00
2022-08-19T21:33:04.997Z,100.00
2022-08-19T21:35:08.735Z,100.00
2022-08-19T21:37:24.666Z,100.00
2022-08-19T21:39:28.528Z,100.00
2022-08-19T21:41:31.903Z,100.00
2022-08-19T21:43:36.418Z,100.00
2022-08-19T21:45:39.583Z,100.00
2022-08-19T21:47:43.775Z,100.00
2022-08-19T21:49:47.175Z,100.00
2022-08-19T21:51:50.464Z,100.00
2022-08-19T21:53:53.634Z,100.00
2022-08-19T21:55:56.727Z,100.00
2022-08-19T21:58:00.261Z,100.00
2022-08-19T22:00:07.165Z,100.00
2022-08-19T22:02:20.103Z,100.00
2022-08-19T22:04:23.789Z,100.00
2022-08-19T22:06:29.790Z,100.00
2022-08-19T22:08:32.998Z,100.00
2022-08-19T22:10:36.308Z,100.00
2022-08-19T22:12:46.004Z,100.00
2022-08-19T22:14:54.778Z,100.00
2022-08-19T22:16:59.253Z,100.00
2022-08-19T22:19:02.350Z,100.00
2022-08-19T22:21:11.281Z,100.00
2022-08-19T22:23:15.239Z,100.00
2022-08-19T22:25:30.104Z,100.00
2022-08-19T22:27:35.358Z,100.00
2022-08-19T22:29:38.582Z,100.00
2022-08-19T22:31:42.291Z,100.00
2022-08-19T22:33:46.708Z,100.00
2022-08-19T22:35:50.070Z,100.00
2022-08-19T22:37:53.073Z,100.00
2022-08-19T22:39:56.322Z,100.00
2022-08-19T22:41:59.478Z,100.00
2022-08-19T22:44:03.816Z,100.00
2022-08-19T22:46:17.341Z,100.00
2022-08-19T22:48:24.057Z,100.00
2022-08-19T22:50:28.743Z,100.00
2022-08-19T22:52:31.553Z,100.00
2022-08-19T22:54:34.601Z,100.00
2022-08-19T22:56:37.643Z,100.00
2022-08-19T22:58:40.751Z,100.00
2022-08-19T23:00:43.900Z,100.00
2022-08-19T23:02:52.203Z,100.00
2022-08-19T23:04:56.028Z,100.00
2022-08-19T23:07:00.548Z,100.00
2022-08-19T23:09:06.689Z,100.00
2022-08-19T23:11:11.715Z,100.00
2022-08-19T23:13:17.183Z,100.00
2022-08-19T23:15:25.482Z,100.00
2022-08-19T23:17:28.572Z,100.00
2022-08-19T23:19:31.998Z,100.00
2022-08-19T23:21:36.276Z,100.00
2022-08-19T23:23:41.551Z,100.00
2022-08-19T23:25:44.656Z,100.00
2022-08-19T23:28:05.780Z,100.00
2022-08-19T23:30:28.664Z,100.00
2022-08-19T23:32:35.756Z,100.00
2022-08-19T23:34:38.805Z,100.00
2022-08-19T23:36:42.400Z,100.00
2022-08-19T23:38:48.834Z,100.00
2022-08-19T23:40:53.026Z,99.55
2022-08-19T23:42:56.227Z,100.00
2022-08-19T23:45:01.809Z,100.00
2022-08-19T23:47:07.115Z,100.00
2022-08-19T23:49:10.200Z,100.00
2022-08-19T23:51:16.391Z,100.00
2022-08-19T23:53:19.936Z,100.00
2022-08-19T23:55:26.753Z,99.33
2022-08-19T23:57:29.825Z,99.65
2022-08-19T23:59:32.899Z,99.66
